createdAt,value
2023-02-23T00:01:26.828Z,5.18
2023-02-23T00:03:57.528Z,5.18
2023-02-23T00:06:27.376Z,4.78
2023-02-23T00:08:55.534Z,4.97
2023-02-23T00:11:23.632Z,6.18
2023-02-23T00:13:52.254Z,5.78
2023-02-23T00:16:21.774Z,4.15
2023-02-23T00:18:51.615Z,5.47
2023-02-23T00:21:22.895Z,5.15
2023-02-23T00:23:53.103Z,5.97
2023-02-23T00:26:21.780Z,5.43
2023-02-23T00:28:50.945Z,5.70
2023-02-23T00:31:19.390Z,5.07
2023-02-23T00:33:47.678Z,4.45
2023-02-23T00:36:16.199Z,4.78
2023-02-23T00:38:46.000Z,4.90
2023-02-23T00:41:20.105Z,4.32
2023-02-23T00:43:54.948Z,6.18
2023-02-23T00:46:26.996Z,4.82
2023-02-23T00:48:56.332Z,4.80
2023-02-23T00:51:30.808Z,5.97
2023-02-23T00:54:00.834Z,5.22
2023-02-23T00:56:29.049Z,5.55
2023-02-23T00:58:57.204Z,5.13
2023-02-23T01:01:26.073Z,4.68
2023-02-23T01:03:54.142Z,4.97
2023-02-23T01:06:22.270Z,5.13
2023-02-23T01:08:52.364Z,5.32
2023-02-23T01:11:22.996Z,5.10
2023-02-23T01:13:53.367Z,6.15
2023-02-23T01:16:26.209Z,4.75
2023-02-23T01:18:54.326Z,4.25
2023-02-23T01:21:25.017Z,5.40
2023-02-23T01:23:53.384Z,5.28
2023-02-23T01:26:24.480Z,5.40
2023-02-23T01:28:53.511Z,5.13
2023-02-23T01:31:22.785Z,4.50
2023-02-23T01:33:55.026Z,4.40
2023-02-23T01:36:23.573Z,4.90
2023-02-23T01:38:52.054Z,5.88
2023-02-23T01:41:20.162Z,5.45
2023-02-23T01:44:01.055Z,5.25
2023-02-23T01:46:31.501Z,5.22
2023-02-23T01:48:59.811Z,4.00
2023-02-23T01:51:31.966Z,5.78
2023-02-23T01:54:05.465Z,4.95
2023-02-23T01:56:37.965Z,5.13
2023-02-23T01:59:12.163Z,4.85
2023-02-23T02:01:41.097Z,4.28
2023-02-23T02:04:10.487Z,5.43
2023-02-23T02:06:40.776Z,4.65
2023-02-23T02:09:16.539Z,4.57
2023-02-23T02:11:46.543Z,5.13
2023-02-23T02:14:21.690Z,4.65
2023-02-23T02:17:02.284Z,6.03
2023-02-23T02:20:06.693Z,5.47
2023-02-23T02:23:28.266Z,4.20
2023-02-23T02:26:04.982Z,4.22
2023-02-23T02:29:06.486Z,4.63
2023-02-23T02:35:18.976Z,4.45
2023-02-23T02:37:57.257Z,3.40
2023-02-23T02:40:30.776Z,5.22
2023-02-23T02:43:08.486Z,4.97
2023-02-23T02:45:43.861Z,5.25
2023-02-23T02:48:19.455Z,5.63
2023-02-23T02:50:52.087Z,4.47
2023-02-23T02:53:27.641Z,5.65
2023-02-23T02:56:00.287Z,4.50
2023-02-23T02:58:28.878Z,4.28
2023-02-23T03:01:14.098Z,5.90
2023-02-23T03:04:02.381Z,5.13
2023-02-23T03:06:50.746Z,6.32
2023-02-23T03:09:50.809Z,5.95
2023-02-23T03:12:45.734Z,5.70
2023-02-23T03:15:55.358Z,5.03
2023-02-23T03:19:10.167Z,5.88
2023-02-23T03:22:01.308Z,5.05
2023-02-23T03:24:55.167Z,5.97
2023-02-23T03:27:48.720Z,5.97
2023-02-23T03:30:38.828Z,5.75
2023-02-23T03:33:31.131Z,5.50
2023-02-23T03:36:23.260Z,5.72
2023-02-23T03:39:14.920Z,4.78
2023-02-23T03:42:04.969Z,5.75
2023-02-23T03:44:53.725Z,5.90
2023-02-23T03:47:46.247Z,6.00
2023-02-23T03:50:39.584Z,5.65
2023-02-23T03:53:28.753Z,6.57
2023-02-23T03:56:16.851Z,6.40
2023-02-23T03:59:07.650Z,5.88
2023-02-23T04:01:55.212Z,6.10
2023-02-23T04:04:41.669Z,5.80
2023-02-23T04:07:28.593Z,7.05
2023-02-23T04:10:13.873Z,6.30
2023-02-23T04:13:10.634Z,4.80
2023-02-23T04:15:42.579Z,6.13
2023-02-23T04:18:15.497Z,4.95
2023-02-23T04:20:43.417Z,5.78
2023-02-23T04:23:11.278Z,6.32
2023-02-23T04:25:39.215Z,6.45
2023-02-23T04:28:07.016Z,5.05
2023-02-23T04:30:34.842Z,5.43
2023-02-23T04:33:03.992Z,5.88
2023-02-23T04:35:31.860Z,5.68
2023-02-23T04:38:00.218Z,5.65
2023-02-23T04:40:28.558Z,5.65
2023-02-23T04:42:56.612Z,5.93
2023-02-23T04:45:25.186Z,5.18
2023-02-23T04:47:53.179Z,5.45
2023-02-23T04:50:22.606Z,5.47
2023-02-23T04:52:51.202Z,5.47
2023-02-23T04:55:21.672Z,5.82
2023-02-23T04:57:49.671Z,5.07
2023-02-23T05:00:18.784Z,6.00
2023-02-23T05:02:47.725Z,5.43
2023-02-23T05:05:17.004Z,5.70
2023-02-23T05:07:46.399Z,6.65
2023-02-23T05:10:14.232Z,4.80
2023-02-23T05:12:42.054Z,5.57
2023-02-23T05:15:11.271Z,4.57
2023-02-23T05:17:41.930Z,6.03
2023-02-23T05:20:11.456Z,5.55
2023-02-23T05:22:39.616Z,5.15
2023-02-23T05:25:10.116Z,5.05
2023-02-23T05:27:38.047Z,4.50
2023-02-23T05:30:07.855Z,4.90
2023-02-23T05:32:35.840Z,4.72
2023-02-23T05:35:04.159Z,4.82
2023-02-23T05:37:32.004Z,5.53
2023-02-23T05:39:59.790Z,5.78
2023-02-23T05:42:29.115Z,6.03
2023-02-23T05:44:56.922Z,4.63
2023-02-23T05:47:24.720Z,5.03
2023-02-23T05:49:52.925Z,5.60
2023-02-23T05:52:20.768Z,4.72
2023-02-23T05:54:48.637Z,5.00
2023-02-23T05:57:16.990Z,5.43
2023-02-23T05:59:46.495Z,5.65
2023-02-23T06:02:14.427Z,4.63
2023-02-23T06:04:42.512Z,4.43
2023-02-23T06:07:10.399Z,5.93
2023-02-23T06:09:38.187Z,5.53
2023-02-23T06:12:06.443Z,4.40
2023-02-23T06:14:35.140Z,4.25
2023-02-23T06:17:04.333Z,6.00
2023-02-23T06:19:32.925Z,4.57
2023-02-23T06:22:00.984Z,5.32
2023-02-23T06:24:28.934Z,3.67
2023-02-23T06:26:56.826Z,4.88
2023-02-23T06:29:24.743Z,4.68
2023-02-23T06:31:52.748Z,4.57
2023-02-23T06:34:22.018Z,4.75
2023-02-23T06:36:49.866Z,4.72
2023-02-23T06:39:17.740Z,5.03
2023-02-23T06:44:27.361Z,3.78
2023-02-23T06:46:55.224Z,4.18
2023-02-23T06:49:24.499Z,4.63
2023-02-23T06:51:52.286Z,3.05
2023-02-23T06:54:20.102Z,4.53
2023-02-23T06:56:48.706Z,3.83
2023-02-23T06:59:16.594Z,3.90
2023-02-23T07:01:44.671Z,3.67
2023-02-23T07:04:14.869Z,4.55
2023-02-23T07:06:45.612Z,4.25
2023-02-23T07:09:13.425Z,5.18
2023-02-23T07:11:42.085Z,4.75
2023-02-23T07:14:15.303Z,3.45
2023-02-23T07:16:55.447Z,5.47
2023-02-23T07:19:23.423Z,4.78
2023-02-23T07:21:53.572Z,4.90
2023-02-23T07:24:21.864Z,4.18
2023-02-23T07:26:49.846Z,4.05
2023-02-23T07:29:17.804Z,4.88
2023-02-23T07:31:46.158Z,4.75
2023-02-23T07:34:14.050Z,5.22
2023-02-23T07:36:41.878Z,4.50
2023-02-23T07:39:11.202Z,4.53
2023-02-23T07:41:39.141Z,4.28
2023-02-23T07:44:07.273Z,4.07
2023-02-23T07:46:35.113Z,5.63
2023-02-23T07:49:03.836Z,4.57
2023-02-23T07:51:31.733Z,4.10
2023-02-23T07:54:04.591Z,4.53
2023-02-23T07:56:35.959Z,4.47
2023-02-23T07:59:03.896Z,4.85
2023-02-23T08:01:31.942Z,4.45
2023-02-23T08:03:59.958Z,4.75
2023-02-23T08:06:28.050Z,4.97
2023-02-23T08:08:55.930Z,5.47
2023-02-23T08:11:23.756Z,4.43
2023-02-23T08:13:54.005Z,3.92
2023-02-23T08:16:21.910Z,4.53
2023-02-23T08:18:49.804Z,4.38
2023-02-23T08:21:17.765Z,4.90
2023-02-23T08:23:45.744Z,4.85
2023-02-23T08:26:13.578Z,3.63
2023-02-23T08:28:41.786Z,4.40
2023-02-23T08:31:12.015Z,4.95
2023-02-23T08:33:40.034Z,5.30
2023-02-23T08:36:08.983Z,4.18
2023-02-23T08:38:37.513Z,4.72
2023-02-23T08:41:06.207Z,3.95
2023-02-23T08:43:34.205Z,4.43
2023-02-23T08:46:02.031Z,5.10
2023-02-23T08:48:31.283Z,4.10
2023-02-23T08:50:59.748Z,4.32
2023-02-23T08:53:29.609Z,4.63
2023-02-23T08:55:58.858Z,3.90
2023-02-23T08:58:26.711Z,4.78
2023-02-23T09:00:54.786Z,3.60
2023-02-23T09:03:26.116Z,4.88
2023-02-23T09:05:55.655Z,4.55
2023-02-23T09:08:23.920Z,4.13
2023-02-23T09:10:51.980Z,4.55
2023-02-23T09:13:19.944Z,4.20
2023-02-23T09:15:48.880Z,4.40
2023-02-23T09:18:17.452Z,3.47
2023-02-23T09:20:46.462Z,4.03
2023-02-23T09:23:15.685Z,3.50
2023-02-23T09:25:44.542Z,3.80
2023-02-23T09:28:14.146Z,3.60
2023-02-23T09:30:43.072Z,2.97
2023-02-23T09:33:12.161Z,3.28
2023-02-23T09:35:41.520Z,3.42
2023-02-23T09:38:10.270Z,3.22
2023-02-23T09:40:53.203Z,2.85
2023-02-23T09:43:27.585Z,2.45
2023-02-23T09:46:01.560Z,3.25
2023-02-23T09:48:30.931Z,2.42
2023-02-23T09:51:00.592Z,1.88
2023-02-23T09:53:36.030Z,2.97
2023-02-23T09:56:12.174Z,2.47
2023-02-23T09:58:40.586Z,2.08
2023-02-23T10:01:42.607Z,2.58
2023-02-23T10:04:17.856Z,2.05
2023-02-23T10:06:50.439Z,2.20
2023-02-23T10:09:27.615Z,2.97
2023-02-23T10:12:04.844Z,2.58
2023-02-23T10:14:54.381Z,2.00
2023-02-23T10:17:32.325Z,2.13
2023-02-23T10:20:08.858Z,2.20
2023-02-23T10:22:37.169Z,2.35
2023-02-23T10:25:11.288Z,1.83
2023-02-23T10:27:43.808Z,1.95
2023-02-23T10:30:20.522Z,2.13
2023-02-23T10:32:53.464Z,1.85
2023-02-23T10:35:24.471Z,1.90
2023-02-23T10:37:53.835Z,1.73
2023-02-23T10:40:24.435Z,1.70
2023-02-23T10:42:55.100Z,2.47
2023-02-23T10:45:24.889Z,2.05
2023-02-23T10:47:57.969Z,2.40
2023-02-23T10:50:28.955Z,2.25
2023-02-23T10:53:00.017Z,2.28
2023-02-23T10:55:30.291Z,1.55
2023-02-23T10:58:10.865Z,1.92
2023-02-23T11:00:40.323Z,1.42
2023-02-23T11:03:19.791Z,1.60
2023-02-23T11:05:50.576Z,2.33
2023-02-23T11:08:22.433Z,1.38
2023-02-23T11:11:02.290Z,1.63
2023-02-23T11:13:37.664Z,0.82
2023-02-23T11:16:10.021Z,1.30
2023-02-23T11:18:38.973Z,0.82
2023-02-23T11:21:18.892Z,1.63
2023-02-23T11:23:47.133Z,0.95
2023-02-23T11:26:30.893Z,1.05
2023-02-23T11:29:05.635Z,0.85
2023-02-23T11:31:36.117Z,1.08
2023-02-23T11:34:05.901Z,1.60
2023-02-23T11:36:35.976Z,0.85
2023-02-23T11:39:22.824Z,1.13
2023-02-23T11:42:14.888Z,0.85
2023-02-23T11:44:45.340Z,1.20
2023-02-23T11:47:20.501Z,1.80
2023-02-23T11:49:50.702Z,1.35
2023-02-23T11:52:21.420Z,1.20
2023-02-23T11:54:55.316Z,2.40
2023-02-23T11:57:25.919Z,2.20
2023-02-23T11:59:56.674Z,1.00
2023-02-23T12:02:26.705Z,1.75
2023-02-23T12:05:03.320Z,1.70
2023-02-23T12:07:41.292Z,1.95
2023-02-23T12:10:17.326Z,2.40
2023-02-23T12:12:52.040Z,1.58
2023-02-23T12:15:35.098Z,1.55
2023-02-23T12:18:09.385Z,1.60
2023-02-23T12:20:41.577Z,1.50
2023-02-23T12:23:13.521Z,1.60
2023-02-23T12:25:46.688Z,1.50
2023-02-23T12:28:21.249Z,1.40
2023-02-23T12:30:56.026Z,1.55
2023-02-23T12:33:30.058Z,1.38
2023-02-23T12:36:02.190Z,1.42
2023-02-23T12:38:39.227Z,1.45
2023-02-23T12:41:13.103Z,1.73
2023-02-23T12:43:51.234Z,1.38
2023-02-23T12:46:25.591Z,1.45
2023-02-23T12:49:03.147Z,1.40
2023-02-23T12:51:35.844Z,1.30
2023-02-23T12:54:05.784Z,1.52
2023-02-23T12:56:42.051Z,1.20
2023-02-23T12:59:21.879Z,1.33
2023-02-23T13:01:55.906Z,1.60
2023-02-23T13:04:38.606Z,1.50
2023-02-23T13:07:18.655Z,0.90
2023-02-23T13:09:56.545Z,1.13
2023-02-23T13:12:41.806Z,1.60
2023-02-23T13:15:19.650Z,1.50
2023-02-23T13:17:55.828Z,1.13
2023-02-23T13:20:31.192Z,1.00
2023-02-23T13:23:09.903Z,0.82
2023-02-23T13:25:47.467Z,1.30
2023-02-23T13:28:21.124Z,1.13
2023-02-23T13:30:49.067Z,1.63
2023-02-23T13:33:35.033Z,0.88
2023-02-23T13:36:07.094Z,1.33
2023-02-23T13:38:47.012Z,1.15
2023-02-23T13:41:28.953Z,1.33
2023-02-23T13:44:00.667Z,0.80
2023-02-23T13:46:40.852Z,0.82
2023-02-23T13:49:24.773Z,0.75
2023-02-23T13:51:56.843Z,0.60
2023-02-23T13:54:29.511Z,0.85
2023-02-23T13:57:00.064Z,0.90
2023-02-23T13:59:30.516Z,0.70
2023-02-23T14:02:03.369Z,1.17
2023-02-23T14:04:37.137Z,1.27
2023-02-23T14:07:16.519Z,1.05
2023-02-23T14:09:53.955Z,0.60
2023-02-23T14:12:27.542Z,0.73
2023-02-23T14:14:55.403Z,0.60
2023-02-23T14:17:56.906Z,1.23
2023-02-23T14:23:49.397Z,1.10
2023-02-23T14:26:37.162Z,0.68
2023-02-23T14:29:28.564Z,1.17
2023-02-23T14:34:53.479Z,0.85
2023-02-23T14:37:32.045Z,0.88
2023-02-23T14:40:06.506Z,0.93
2023-02-23T14:42:34.375Z,0.98
2023-02-23T14:45:08.660Z,1.40
2023-02-23T14:47:45.740Z,1.17
2023-02-23T14:50:19.509Z,1.30
2023-02-23T14:52:49.567Z,0.73
2023-02-23T14:55:22.592Z,0.90
2023-02-23T14:57:50.926Z,1.15
2023-02-23T15:00:23.053Z,1.33
2023-02-23T15:02:56.683Z,1.02
2023-02-23T15:05:26.506Z,1.55
2023-02-23T15:08:00.435Z,1.58
2023-02-23T15:10:34.377Z,1.77
2023-02-23T15:13:08.857Z,1.38
2023-02-23T15:15:39.266Z,1.80
2023-02-23T15:18:07.108Z,0.93
2023-02-23T15:20:38.377Z,1.42
2023-02-23T15:23:07.623Z,1.45
2023-02-23T15:25:39.192Z,1.27
2023-02-23T15:28:22.209Z,1.65
2023-02-23T15:30:51.513Z,1.88
2023-02-23T15:33:23.632Z,1.88
2023-02-23T15:35:55.225Z,1.48
2023-02-23T15:38:43.004Z,1.27
2023-02-23T15:41:18.919Z,1.63
2023-02-23T15:43:47.260Z,1.20
2023-02-23T15:46:25.167Z,1.30
2023-02-23T15:48:55.793Z,1.45
2023-02-23T15:51:35.256Z,1.55
2023-02-23T15:54:14.190Z,1.38
2023-02-23T15:56:47.572Z,1.70
2023-02-23T15:59:23.908Z,2.15
2023-02-23T16:01:54.865Z,1.83
2023-02-23T16:04:27.124Z,1.95
2023-02-23T16:06:56.953Z,1.75
2023-02-23T16:09:29.856Z,3.00
2023-02-23T16:12:02.956Z,2.28
2023-02-23T16:14:35.752Z,2.20
2023-02-23T16:17:11.670Z,2.15
2023-02-23T16:19:41.634Z,2.10
2023-02-23T16:22:19.207Z,2.05
2023-02-23T16:24:54.615Z,1.88
2023-02-23T16:27:22.489Z,2.28
2023-02-23T16:30:00.405Z,2.85
2023-02-23T16:32:36.718Z,2.42
2023-02-23T16:35:15.158Z,2.08
2023-02-23T16:37:58.551Z,2.40
2023-02-23T16:40:28.190Z,2.40
2023-02-23T16:42:59.320Z,2.15
2023-02-23T16:45:29.507Z,1.98
2023-02-23T16:48:02.058Z,2.47
2023-02-23T16:50:30.617Z,2.42
2023-02-23T16:52:58.513Z,1.98
2023-02-23T16:55:29.501Z,2.92
2023-02-23T16:58:00.060Z,2.00
2023-02-23T17:00:29.781Z,2.60
2023-02-23T17:02:58.634Z,2.03
2023-02-23T17:05:26.752Z,2.65
2023-02-23T17:07:57.480Z,2.90
2023-02-23T17:10:29.422Z,2.25
2023-02-23T17:12:58.710Z,2.10
2023-02-23T17:15:29.471Z,2.33
2023-02-23T17:17:57.716Z,2.78
2023-02-23T17:20:26.598Z,2.10
2023-02-23T17:22:55.651Z,1.85
2023-02-23T17:25:26.436Z,2.28
2023-02-23T17:27:56.197Z,1.92
2023-02-23T17:30:24.828Z,2.20
2023-02-23T17:32:54.542Z,2.28
2023-02-23T17:35:22.934Z,2.63
2023-02-23T17:37:51.093Z,1.75
2023-02-23T17:40:26.213Z,2.33
2023-02-23T17:42:55.971Z,2.13
2023-02-23T17:45:23.982Z,2.60
2023-02-23T17:47:51.841Z,1.77
2023-02-23T17:50:21.616Z,1.70
2023-02-23T17:52:50.079Z,2.88
2023-02-23T17:55:18.992Z,1.88
2023-02-23T17:57:47.478Z,2.05
2023-02-23T18:00:19.168Z,2.03
2023-02-23T18:02:47.071Z,2.38
2023-02-23T18:05:15.763Z,2.28
2023-02-23T18:07:45.973Z,1.80
2023-02-23T18:10:16.638Z,2.05
2023-02-23T18:12:44.493Z,2.40
2023-02-23T18:15:12.411Z,2.10
2023-02-23T18:17:41.553Z,2.13
2023-02-23T18:20:13.981Z,2.65
2023-02-23T18:22:41.834Z,1.80
2023-02-23T18:25:10.826Z,2.38
2023-02-23T18:27:38.631Z,2.70
2023-02-23T18:30:07.785Z,2.22
2023-02-23T18:32:35.758Z,1.92
2023-02-23T18:35:05.689Z,2.72
2023-02-23T18:37:33.495Z,1.70
2023-02-23T18:40:01.305Z,2.28
2023-02-23T18:42:29.175Z,1.60
2023-02-23T18:44:56.998Z,1.98
2023-02-23T18:47:25.592Z,2.17
2023-02-23T18:49:53.623Z,2.00
2023-02-23T18:52:22.809Z,2.47
2023-02-23T18:54:50.816Z,1.90
2023-02-23T18:57:18.722Z,2.15
2023-02-23T18:59:47.272Z,1.88
2023-02-23T19:02:15.139Z,1.92
2023-02-23T19:04:43.061Z,2.30
2023-02-23T19:07:11.008Z,2.17
2023-02-23T19:09:40.909Z,2.25
2023-02-23T19:12:09.005Z,2.00
2023-02-23T19:14:48.760Z,1.90
2023-02-23T19:17:19.502Z,2.30
2023-02-23T19:19:47.720Z,1.98
2023-02-23T19:22:15.560Z,2.00
2023-02-23T19:24:44.771Z,2.03
2023-02-23T19:27:12.611Z,2.10
2023-02-23T19:29:40.422Z,2.13
2023-02-23T19:32:08.662Z,2.10
2023-02-23T19:34:37.340Z,1.80
2023-02-23T19:37:05.191Z,2.30
2023-02-23T19:39:33.267Z,2.17
2023-02-23T19:42:02.778Z,2.28
2023-02-23T19:44:30.659Z,2.67
2023-02-23T19:46:58.665Z,1.88
2023-02-23T19:49:26.678Z,2.20
2023-02-23T19:51:54.547Z,1.90
2023-02-23T19:54:26.036Z,1.77
2023-02-23T19:56:54.519Z,2.10
2023-02-23T19:59:24.545Z,2.10
2023-02-23T20:01:52.848Z,1.98
2023-02-23T20:04:21.316Z,1.95
2023-02-23T20:06:49.168Z,1.90
2023-02-23T20:09:16.992Z,1.65
2023-02-23T20:11:44.859Z,1.40
2023-02-23T20:14:12.741Z,1.55
2023-02-23T20:16:42.027Z,1.70
2023-02-23T20:19:11.557Z,1.65
2023-02-23T20:21:39.688Z,1.63
2023-02-23T20:24:08.095Z,1.77
2023-02-23T20:26:39.227Z,1.58
2023-02-23T20:29:11.054Z,1.50
2023-02-23T20:31:42.803Z,2.15
2023-02-23T20:34:11.996Z,1.90
2023-02-23T20:36:40.198Z,1.92
2023-02-23T20:39:09.040Z,1.65
2023-02-23T20:41:36.850Z,1.58
2023-02-23T20:44:04.814Z,1.27
2023-02-23T20:46:32.656Z,1.67
2023-02-23T20:49:03.601Z,2.15
2023-02-23T20:51:31.446Z,1.80
2023-02-23T20:53:59.339Z,1.65
2023-02-23T20:56:32.648Z,2.00
2023-02-23T20:59:00.871Z,1.80
2023-02-23T21:01:29.193Z,2.30
2023-02-23T21:03:59.554Z,2.15
2023-02-23T21:06:30.811Z,2.15
2023-02-23T21:09:04.168Z,1.95
2023-02-23T21:11:33.214Z,2.60
2023-02-23T21:14:01.664Z,2.58
2023-02-23T21:16:32.268Z,2.15
2023-02-23T21:19:04.867Z,1.80
2023-02-23T21:21:39.931Z,2.40
2023-02-23T21:24:08.014Z,2.33
2023-02-23T21:26:35.913Z,2.35
2023-02-23T21:29:04.172Z,2.47
2023-02-23T21:31:32.308Z,2.40
2023-02-23T21:34:00.168Z,2.50
2023-02-23T21:36:27.981Z,3.35
2023-02-23T21:38:57.166Z,2.97
2023-02-23T21:41:25.049Z,2.55
2023-02-23T21:43:53.860Z,3.38
2023-02-23T21:46:23.037Z,3.35
2023-02-23T21:48:50.966Z,3.35
2023-02-23T21:51:19.817Z,2.60
2023-02-23T21:53:48.574Z,2.83
2023-02-23T21:56:20.308Z,3.00
2023-02-23T21:58:50.324Z,2.58
2023-02-23T22:01:22.169Z,2.50
2023-02-23T22:03:50.949Z,3.25
2023-02-23T22:06:21.116Z,3.75
2023-02-23T22:08:50.211Z,2.93
2023-02-23T22:11:24.816Z,3.15
2023-02-23T22:13:58.651Z,3.05
2023-02-23T22:16:27.822Z,3.28
2023-02-23T22:18:55.766Z,3.20
2023-02-23T22:21:23.699Z,3.33
2023-02-23T22:23:53.288Z,2.97
2023-02-23T22:26:22.697Z,2.88
2023-02-23T22:28:50.519Z,2.55
2023-02-23T22:31:18.608Z,3.22
2023-02-23T22:33:46.666Z,3.80
2023-02-23T22:36:18.163Z,3.42
2023-02-23T22:38:46.715Z,2.95
2023-02-23T22:41:14.640Z,3.35
2023-02-23T22:43:46.722Z,4.13
2023-02-23T22:46:16.238Z,3.50
2023-02-23T22:48:45.585Z,3.80
2023-02-23T22:51:14.601Z,3.30
2023-02-23T22:53:43.293Z,3.22
2023-02-23T22:56:11.301Z,4.00
2023-02-23T22:58:41.966Z,3.60
2023-02-23T23:01:12.167Z,3.80
2023-02-23T23:03:41.928Z,3.87
2023-02-23T23:06:11.690Z,4.47
2023-02-23T23:08:41.762Z,4.30
2023-02-23T23:11:12.939Z,4.03
2023-02-23T23:19:02.356Z,3.10
2023-02-23T23:21:32.153Z,3.85
2023-02-23T23:24:03.012Z,3.08
2023-02-23T23:26:31.768Z,3.63
2023-02-23T23:29:01.283Z,3.75
2023-02-23T23:31:32.678Z,3.55
2023-02-23T23:34:02.337Z,3.70
2023-02-23T23:36:32.084Z,3.88
2023-02-23T23:39:01.265Z,3.72
2023-02-23T23:41:36.172Z,4.03
2023-02-23T23:44:05.115Z,3.13
2023-02-23T23:46:37.573Z,3.22
2023-02-23T23:49:08.131Z,3.72
2023-02-23T23:51:39.107Z,3.65
2023-02-23T23:54:09.594Z,4.28
2023-02-23T23:56:38.212Z,4.03
2023-02-23T23:59:08.168Z,4.15
